Time;durP1;ratioP1;P1;durP2;ratioP2;P2;SDS_P1;SDS_P2;PMS_P1;PMS_P2;Temp;Humidity;BMP_temperature;BMP_pressure;BME280_temperature;BME280_humidity;BME280_pressure;Samples;Min_cycle;Max_cycle;Signal;HPM_P1;HPM_P2
2023/04/23 00:00:35;;;;;;;;;;;19.80;49.40;;;;;;10371457;28;806;-76
2023/04/23 00:05:31;;;;;;;;;;;19.80;49.40;;;;;;10370635;28;890;-77
2023/04/23 00:10:27;;;;;;;;;;;19.80;49.30;;;;;;10370456;28;1114;-77
2023/04/23 00:15:22;;;;;;;;;;;19.80;49.40;;;;;;10352149;28;1905;-76
2023/04/23 00:20:17;;;;;;;;;;;19.80;49.30;;;;;;10370776;28;845;-76
2023/04/23 00:25:13;;;;;;;;;;;19.80;49.30;;;;;;10370335;28;985;-76
2023/04/23 00:30:08;;;;;;;;;;;19.80;49.30;;;;;;10369836;28;754;-76
2023/04/23 00:35:04;;;;;;;;;;;19.80;49.30;;;;;;10370207;28;1905;-76
2023/04/23 00:40:01;;;;;;;;;;;19.80;49.20;;;;;;10370073;28;818;-77
2023/04/23 00:44:56;;;;;;;;;;;19.80;49.80;;;;;;10369942;28;807;-76
2023/04/23 00:49:54;;;;;;;;;;;19.80;49.20;;;;;;10370193;28;877;-77
2023/04/23 00:54:49;;;;;;;;;;;19.80;49.30;;;;;;10368998;28;1902;-76
2023/04/23 00:59:45;;;;;;;;;;;19.80;49.20;;;;;;10368718;28;888;-77
2023/04/23 01:04:40;;;;;;;;;;;19.80;49.20;;;;;;10366855;28;825;-77
2023/04/23 01:09:35;;;;;;;;;;;19.80;49.20;;;;;;10368787;28;822;-76
2023/04/23 01:14:31;;;;;;;;;;;19.80;49.20;;;;;;10368269;28;1886;-76
2023/04/23 01:19:26;;;;;;;;;;;19.80;49.10;;;;;;10367811;28;940;-76
2023/04/23 01:24:21;;;;;;;;;;;19.80;49.10;;;;;;10367674;28;873;-76
2023/04/23 01:29:17;;;;;;;;;;;19.80;49.10;;;;;;10367543;28;760;-76
2023/04/23 01:34:12;;;;;;;;;;;19.80;49.70;;;;;;10366707;28;1957;-76
2023/04/23 01:39:08;;;;;;;;;;;19.80;49.10;;;;;;10367408;28;947;-77
2023/04/23 01:44:04;;;;;;;;;;;19.80;49.10;;;;;;10366980;28;906;-78
2023/04/23 01:48:59;;;;;;;;;;;19.80;49.10;;;;;;10367470;28;870;-77
2023/04/23 01:53:54;;;;;;;;;;;19.80;49.10;;;;;;10367005;28;994;-77
2023/04/23 01:58:50;;;;;;;;;;;19.70;49.10;;;;;;10366309;28;1909;-77
2023/04/23 02:03:46;;;;;;;;;;;19.80;49.20;;;;;;10367182;28;888;-77
2023/04/23 02:08:41;;;;;;;;;;;19.70;49.10;;;;;;10367059;28;808;-76
2023/04/23 02:13:37;;;;;;;;;;;19.70;49.10;;;;;;10371108;28;876;-76
2023/04/23 02:18:32;;;;;;;;;;;19.70;49.10;;;;;;10375397;28;1977;-77
2023/04/23 02:23:27;;;;;;;;;;;19.70;49.10;;;;;;10375938;28;906;-76
2023/04/23 02:28:23;;;;;;;;;;;19.70;49.10;;;;;;10374499;28;866;-76
2023/04/23 02:33:18;;;;;;;;;;;19.70;49.20;;;;;;10375006;28;760;-76
2023/04/23 02:38:14;;;;;;;;;;;19.70;49.20;;;;;;10374071;28;1909;-77
2023/04/23 02:43:09;;;;;;;;;;;19.70;49.20;;;;;;10373922;28;932;-76
2023/04/23 02:48:05;;;;;;;;;;;19.70;49.10;;;;;;10374679;28;859;-77
2023/04/23 02:53:00;;;;;;;;;;;19.70;49.10;;;;;;10373607;28;849;-77
2023/04/23 02:57:55;;;;;;;;;;;19.70;49.20;;;;;;10360843;28;1910;-76
2023/04/23 03:02:51;;;;;;;;;;;19.70;49.10;;;;;;10373250;28;928;-77
2023/04/23 03:07:46;;;;;;;;;;;19.70;49.20;;;;;;10372445;28;931;-77
2023/04/23 03:12:41;;;;;;;;;;;19.70;49.10;;;;;;10374121;28;916;-77
2023/04/23 03:17:37;;;;;;;;;;;19.70;49.10;;;;;;10373232;28;1910;-77
2023/04/23 03:22:32;;;;;;;;;;;19.70;49.10;;;;;;10372636;28;785;-76
2023/04/23 03:27:28;;;;;;;;;;;19.70;49.10;;;;;;10371624;28;933;-76
2023/04/23 03:32:23;;;;;;;;;;;19.70;49.10;;;;;;10373295;28;844;-77
2023/04/23 03:37:18;;;;;;;;;;;19.70;49.20;;;;;;10371454;28;1953;-77
2023/04/23 03:42:14;;;;;;;;;;;19.70;49.10;;;;;;10371091;28;825;-76
2023/04/23 03:47:09;;;;;;;;;;;19.60;49.00;;;;;;10372068;28;950;-77
2023/04/23 03:52:05;;;;;;;;;;;19.60;49.10;;;;;;10371396;28;775;-77
2023/04/23 03:57:00;;;;;;;;;;;19.60;49.10;;;;;;10371001;28;1902;-76
2023/04/23 04:01:56;;;;;;;;;;;19.60;49.10;;;;;;10370857;28;966;-76
2023/04/23 04:06:52;;;;;;;;;;;19.60;49.10;;;;;;10372174;28;751;-77
2023/04/23 04:11:47;;;;;;;;;;;19.60;49.00;;;;;;10370523;28;770;-77
2023/04/23 04:16:43;;;;;;;;;;;19.60;49.00;;;;;;10370886;28;1977;-77
2023/04/23 04:21:38;;;;;;;;;;;19.60;49.10;;;;;;10370114;28;1046;-76
2023/04/23 04:26:33;;;;;;;;;;;19.60;49.10;;;;;;10370032;28;861;-77
2023/04/23 04:31:29;;;;;;;;;;;19.60;49.10;;;;;;10369713;28;801;-76
2023/04/23 04:36:26;;;;;;;;;;;19.60;49.10;;;;;;10369296;28;1959;-77
2023/04/23 04:41:21;;;;;;;;;;;19.60;49.00;;;;;;10369454;28;771;-77
2023/04/23 04:46:19;;;;;;;;;;;19.60;49.00;;;;;;10369118;28;1232;-76
2023/04/23 04:51:14;;;;;;;;;;;19.60;49.00;;;;;;10368983;28;779;-76
2023/04/23 04:56:10;;;;;;;;;;;19.70;49.00;;;;;;10368570;28;1906;-76
2023/04/23 05:01:05;;;;;;;;;;;19.70;49.00;;;;;;10369165;28;868;-76
2023/04/23 05:06:01;;;;;;;;;;;19.70;49.10;;;;;;10367783;28;1086;-76
2023/04/23 05:10:56;;;;;;;;;;;19.70;49.00;;;;;;10367646;28;1015;-76
2023/04/23 05:15:51;;;;;;;;;;;19.70;48.90;;;;;;10367359;28;1967;-76
2023/04/23 05:20:47;;;;;;;;;;;19.70;48.90;;;;;;10368518;28;869;-76
2023/04/23 05:25:42;;;;;;;;;;;19.70;48.90;;;;;;10368469;28;817;-76
2023/04/23 05:30:38;;;;;;;;;;;19.70;49.50;;;;;;10366946;28;960;-77
2023/04/23 05:35:33;;;;;;;;;;;19.70;49.00;;;;;;10367854;28;1898;-76
2023/04/23 05:40:29;;;;;;;;;;;19.70;49.00;;;;;;10367221;28;837;-76
2023/04/23 05:45:24;;;;;;;;;;;19.70;49.00;;;;;;10367879;28;909;-76
2023/04/23 05:50:20;;;;;;;;;;;19.70;48.90;;;;;;10366305;28;981;-76
2023/04/23 05:55:15;;;;;;;;;;;19.70;48.90;;;;;;10366741;28;1905;-76
2023/04/23 06:00:10;;;;;;;;;;;19.70;48.90;;;;;;10366683;28;754;-76
2023/04/23 06:05:06;;;;;;;;;;;19.70;48.90;;;;;;10366004;28;881;-76
2023/04/23 06:10:02;;;;;;;;;;;19.70;49.00;;;;;;10366480;28;864;-75
2023/04/23 06:14:57;;;;;;;;;;;19.60;48.90;;;;;;10366297;28;1913;-75
2023/04/23 06:19:52;;;;;;;;;;;19.60;49.00;;;;;;10365662;28;892;-75
2023/04/23 06:24:48;;;;;;;;;;;19.70;48.90;;;;;;10365798;28;924;-77
2023/04/23 06:29:43;;;;;;;;;;;19.70;48.90;;;;;;10365520;28;916;-76
2023/04/23 06:34:38;;;;;;;;;;;19.70;48.90;;;;;;10365929;28;1910;-76
2023/04/23 06:39:34;;;;;;;;;;;19.70;48.90;;;;;;10365933;28;766;-68
2023/04/23 06:44:29;;;;;;;;;;;19.70;49.00;;;;;;10366309;28;779;-68
2023/04/23 06:49:25;;;;;;;;;;;19.70;49.00;;;;;;10365717;28;742;-68
2023/04/23 06:54:20;;;;;;;;;;;19.70;49.00;;;;;;10366040;28;1905;-69
2023/04/23 06:59:15;;;;;;;;;;;19.70;49.60;;;;;;10368513;28;857;-68
2023/04/23 07:04:11;;;;;;;;;;;19.70;49.10;;;;;;10373223;28;932;-68
2023/04/23 07:09:06;;;;;;;;;;;19.70;49.10;;;;;;10373008;28;791;-68
2023/04/23 07:14:02;;;;;;;;;;;19.60;49.10;;;;;;10373219;28;836;-73
2023/04/23 07:18:57;;;;;;;;;;;19.60;49.10;;;;;;10372573;28;1898;-73
2023/04/23 07:23:53;;;;;;;;;;;19.70;49.30;;;;;;10372421;28;899;-67
2023/04/23 07:28:49;;;;;;;;;;;19.70;49.30;;;;;;10372241;28;861;-67
2023/04/23 07:33:44;;;;;;;;;;;19.70;49.40;;;;;;10370094;28;1204;-67
2023/04/23 07:38:40;;;;;;;;;;;19.70;49.40;;;;;;10370313;28;1886;-67
2023/04/23 07:43:35;;;;;;;;;;;19.60;49.30;;;;;;10371565;28;798;-67
2023/04/23 07:48:31;;;;;;;;;;;19.60;49.30;;;;;;10371509;28;896;-67
2023/04/23 07:53:27;;;;;;;;;;;19.60;49.40;;;;;;10371056;28;975;-67
2023/04/23 07:58:22;;;;;;;;;;;19.60;49.40;;;;;;10370530;28;1907;-67
2023/04/23 08:03:18;;;;;;;;;;;19.60;49.40;;;;;;10371743;28;825;-67
2023/04/23 08:08:13;;;;;;;;;;;19.60;49.40;;;;;;10370732;28;781;-68
2023/04/23 08:13:09;;;;;;;;;;;19.60;49.50;;;;;;10370576;28;894;-71
2023/04/23 08:18:04;;;;;;;;;;;19.50;49.40;;;;;;10370861;28;1989;-71
2023/04/23 08:22:59;;;;;;;;;;;19.50;50.10;;;;;;10369630;28;949;-67
2023/04/23 08:27:55;;;;;;;;;;;19.50;49.50;;;;;;10370211;28;1518;-67
2023/04/23 08:32:52;;;;;;;;;;;19.60;49.60;;;;;;10369671;28;864;-70
2023/04/23 08:37:47;;;;;;;;;;;19.50;49.50;;;;;;10369312;28;1965;-67
2023/04/23 08:42:43;;;;;;;;;;;19.50;49.70;;;;;;10368757;28;991;-67
2023/04/23 08:47:39;;;;;;;;;;;19.60;49.50;;;;;;10369711;28;790;-66
2023/04/23 08:52:34;;;;;;;;;;;19.60;49.50;;;;;;10370101;28;870;-66
2023/04/23 08:57:30;;;;;;;;;;;19.60;49.50;;;;;;10368852;28;1965;-73
2023/04/23 09:02:25;;;;;;;;;;;19.60;49.60;;;;;;10368566;28;951;-67
2023/04/23 09:07:20;;;;;;;;;;;19.60;49.50;;;;;;10368380;28;894;-68
2023/04/23 09:12:16;;;;;;;;;;;19.60;49.60;;;;;;10368890;28;821;-68
2023/04/23 09:17:11;;;;;;;;;;;19.60;49.50;;;;;;10368103;28;1967;-79
2023/04/23 09:22:08;;;;;;;;;;;19.60;49.50;;;;;;10367574;28;872;-68
2023/04/23 09:27:03;;;;;;;;;;;19.60;49.50;;;;;;10366986;28;893;-68
2023/04/23 09:31:58;;;;;;;;;;;19.60;49.40;;;;;;10367587;28;902;-68
2023/04/23 09:36:54;;;;;;;;;;;19.60;49.30;;;;;;10367207;28;1949;-68
2023/04/23 09:41:49;;;;;;;;;;;19.60;49.30;;;;;;10367311;28;916;-68
2023/04/23 09:46:45;;;;;;;;;;;19.60;49.20;;;;;;10367117;28;801;-67
2023/04/23 09:51:40;;;;;;;;;;;19.60;49.40;;;;;;10366957;28;770;-68
2023/04/23 09:56:36;;;;;;;;;;;19.60;49.30;;;;;;10366552;28;1953;-68
2023/04/23 10:01:31;;;;;;;;;;;19.60;49.30;;;;;;10366692;28;787;-68
2023/04/23 10:06:28;;;;;;;;;;;19.60;49.30;;;;;;10367234;28;949;-68
2023/04/23 10:11:23;;;;;;;;;;;19.60;49.20;;;;;;10366398;28;899;-68
2023/04/23 10:16:18;;;;;;;;;;;19.60;49.30;;;;;;10366854;28;1980;-68
2023/04/23 10:21:15;;;;;;;;;;;19.60;49.20;;;;;;10366866;28;810;-68
2023/04/23 10:26:10;;;;;;;;;;;19.60;49.10;;;;;;10366088;28;878;-68
2023/04/23 10:31:05;;;;;;;;;;;19.60;49.10;;;;;;10366049;28;802;-68
2023/04/23 10:36:01;;;;;;;;;;;19.60;49.10;;;;;;10372148;28;1898;-68
2023/04/23 10:40:56;;;;;;;;;;;19.50;49.00;;;;;;10374780;28;849;-67
2023/04/23 10:45:52;;;;;;;;;;;19.60;48.90;;;;;;10373979;28;1190;-67
2023/04/23 10:50:48;;;;;;;;;;;19.60;48.90;;;;;;10373797;28;840;-68
2023/04/23 10:55:43;;;;;;;;;;;19.60;48.90;;;;;;10374266;28;1910;-68
2023/04/23 11:00:38;;;;;;;;;;;19.60;48.80;;;;;;10373412;28;885;-68
2023/04/23 11:05:34;;;;;;;;;;;19.60;48.90;;;;;;10372577;28;896;-68
2023/04/23 11:10:30;;;;;;;;;;;19.60;48.90;;;;;;10372455;28;896;-68
2023/04/23 11:15:25;;;;;;;;;;;19.60;48.80;;;;;;10373390;28;1898;-68
2023/04/23 11:20:20;;;;;;;;;;;19.60;48.70;;;;;;10373304;28;832;-68
2023/04/23 11:25:16;;;;;;;;;;;19.60;48.70;;;;;;10373089;28;880;-68
2023/04/23 11:30:12;;;;;;;;;;;19.60;48.60;;;;;;10372883;28;794;-68
2023/04/23 11:35:08;;;;;;;;;;;19.60;48.50;;;;;;10372552;28;1957;-68
2023/04/23 11:40:03;;;;;;;;;;;19.60;48.50;;;;;;10371286;28;854;-68
2023/04/23 11:44:58;;;;;;;;;;;19.60;48.50;;;;;;10371379;28;888;-68
2023/04/23 11:49:54;;;;;;;;;;;19.60;48.60;;;;;;10372169;28;922;-68
2023/04/23 11:54:49;;;;;;;;;;;19.60;48.60;;;;;;10370970;28;1971;-68
2023/04/23 11:59:45;;;;;;;;;;;19.60;48.60;;;;;;10371181;28;786;-68
2023/04/23 12:04:40;;;;;;;;;;;19.60;48.70;;;;;;10370561;28;884;-68
2023/04/23 12:09:37;;;;;;;;;;;19.60;48.60;;;;;;10371347;28;1077;-68
2023/04/23 12:14:32;;;;;;;;;;;19.60;48.50;;;;;;10370463;28;1894;-68
2023/04/23 12:19:27;;;;;;;;;;;19.60;48.40;;;;;;10370388;28;962;-68
2023/04/23 12:24:23;;;;;;;;;;;19.60;48.40;;;;;;10370816;28;934;-68
2023/04/23 12:29:18;;;;;;;;;;;19.60;48.50;;;;;;10370552;28;898;-68
2023/04/23 12:34:16;;;;;;;;;;;19.60;48.50;;;;;;10370200;28;876;-68
2023/04/23 12:39:12;;;;;;;;;;;19.60;48.70;;;;;;10369572;28;1969;-77
2023/04/23 12:44:07;;;;;;;;;;;19.60;48.80;;;;;;10369360;28;833;-74
2023/04/23 12:49:02;;;;;;;;;;;19.60;48.80;;;;;;10369180;28;876;-74
2023/04/23 12:53:58;;;;;;;;;;;19.60;48.80;;;;;;10368906;28;842;-74
2023/04/23 12:58:53;;;;;;;;;;;19.60;48.70;;;;;;10369786;28;1978;-72
2023/04/23 13:03:49;;;;;;;;;;;19.70;48.80;;;;;;10368587;28;818;-73
2023/04/23 13:08:44;;;;;;;;;;;19.70;48.70;;;;;;10368357;28;984;-73
2023/04/23 13:13:40;;;;;;;;;;;19.70;48.70;;;;;;10366015;28;1172;-71
2023/04/23 13:18:35;;;;;;;;;;;19.70;48.70;;;;;;10367692;28;1906;-71
2023/04/23 13:23:30;;;;;;;;;;;19.80;48.70;;;;;;10367467;28;856;-71
2023/04/23 13:28:26;;;;;;;;;;;19.80;48.70;;;;;;10367634;28;749;-71
2023/04/23 13:33:21;;;;;;;;;;;19.80;48.70;;;;;;10368003;28;893;-71
2023/04/23 13:38:17;;;;;;;;;;;19.80;48.60;;;;;;10367318;28;1964;-71
2023/04/23 13:43:12;;;;;;;;;;;19.90;48.70;;;;;;10367253;28;916;-71
2023/04/23 13:48:07;;;;;;;;;;;20.00;48.60;;;;;;10367147;28;963;-70
2023/04/23 13:53:03;;;;;;;;;;;20.00;48.60;;;;;;10367385;28;910;-71
2023/04/23 13:57:58;;;;;;;;;;;20.00;48.60;;;;;;10366490;28;1914;-69
2023/04/23 14:02:53;;;;;;;;;;;20.10;48.60;;;;;;10366646;28;793;-71
2023/04/23 14:07:49;;;;;;;;;;;20.10;48.50;;;;;;10366672;28;833;-77
2023/04/23 14:12:45;;;;;;;;;;;20.10;48.50;;;;;;10367137;28;778;-77
2023/04/23 14:17:42;;;;;;;;;;;20.20;49.20;;;;;;10366302;28;1909;-77
2023/04/23 14:22:37;;;;;;;;;;;20.20;51.10;;;;;;10348291;28;778;-74
2023/04/23 14:27:33;;;;;;;;;;;20.20;48.40;;;;;;10366208;28;786;-74
2023/04/23 14:32:28;;;;;;;;;;;20.20;48.60;;;;;;10366002;28;759;-70
2023/04/23 14:37:23;;;;;;;;;;;20.20;50.90;;;;;;10366057;28;1902;-71
2023/04/23 14:42:19;;;;;;;;;;;20.20;48.30;;;;;;10366416;28;881;-70
2023/04/23 14:47:14;;;;;;;;;;;20.20;51.20;;;;;;10365856;28;806;-71
2023/04/23 14:52:10;;;;;;;;;;;20.20;48.00;;;;;;10365676;28;902;-70
2023/04/23 14:57:05;;;;;;;;;;;20.20;48.00;;;;;;10365809;28;1902;-71
2023/04/23 15:02:01;;;;;;;;;;;20.20;48.00;;;;;;10365506;28;902;-71
2023/04/23 15:06:56;;;;;;;;;;;20.10;48.00;;;;;;10365962;28;849;-71
2023/04/23 15:11:51;;;;;;;;;;;20.10;48.00;;;;;;10366006;28;806;-70
2023/04/23 15:16:47;;;;;;;;;;;20.10;48.10;;;;;;10366025;28;1901;-70
2023/04/23 15:21:43;;;;;;;;;;;20.10;48.10;;;;;;10368233;28;873;-70
2023/04/23 15:26:38;;;;;;;;;;;20.10;48.10;;;;;;10372966;28;1021;-70
2023/04/23 15:31:33;;;;;;;;;;;20.00;47.90;;;;;;10372381;28;798;-71
2023/04/23 15:36:31;;;;;;;;;;;20.10;47.90;;;;;;10371534;28;1964;-70
2023/04/23 15:41:27;;;;;;;;;;;20.00;47.90;;;;;;10371896;28;984;-71
2023/04/23 15:46:22;;;;;;;;;;;20.00;47.80;;;;;;10371720;28;878;-71
2023/04/23 15:51:17;;;;;;;;;;;20.00;47.80;;;;;;10371581;28;900;-71
2023/04/23 15:56:13;;;;;;;;;;;20.00;47.80;;;;;;10371485;28;1977;-70
2023/04/23 16:01:08;;;;;;;;;;;20.00;47.80;;;;;;10371139;28;860;-70
2023/04/23 16:06:04;;;;;;;;;;;19.90;47.70;;;;;;10371477;28;841;-72
2023/04/23 16:10:59;;;;;;;;;;;20.00;47.70;;;;;;10370117;28;1167;-75
2023/04/23 16:15:55;;;;;;;;;;;20.00;47.70;;;;;;10371135;28;1905;-70
2023/04/23 16:20:50;;;;;;;;;;;19.90;47.70;;;;;;10370334;28;901;-65
2023/04/23 16:25:45;;;;;;;;;;;19.90;47.70;;;;;;10370912;28;837;-66
2023/04/23 16:30:41;;;;;;;;;;;19.90;47.60;;;;;;10370153;28;849;-66
2023/04/23 16:35:36;;;;;;;;;;;19.90;47.60;;;;;;10370461;28;1902;-66
2023/04/23 16:40:33;;;;;;;;;;;19.90;47.60;;;;;;10370175;28;826;-66
2023/04/23 16:45:28;;;;;;;;;;;19.90;47.60;;;;;;10370057;28;786;-66
2023/04/23 16:50:24;;;;;;;;;;;19.90;47.60;;;;;;10369757;28;907;-66
2023/04/23 16:55:19;;;;;;;;;;;19.90;47.60;;;;;;10369298;28;1987;-66
2023/04/23 17:00:15;;;;;;;;;;;19.90;47.60;;;;;;10369444;28;825;-66
2023/04/23 17:05:11;;;;;;;;;;;19.90;47.60;;;;;;10368592;28;965;-66
2023/04/23 17:10:06;;;;;;;;;;;19.90;47.60;;;;;;10368502;28;774;-66
2023/04/23 17:15:01;;;;;;;;;;;20.00;47.60;;;;;;10368208;28;1902;-66
2023/04/23 17:19:57;;;;;;;;;;;20.00;47.60;;;;;;10367522;28;956;-66
2023/04/23 17:24:52;;;;;;;;;;;20.00;47.70;;;;;;10367345;28;921;-66
2023/04/23 17:29:47;;;;;;;;;;;19.90;47.70;;;;;;10368612;28;877;-66
2023/04/23 17:34:45;;;;;;;;;;;20.00;47.70;;;;;;10367675;28;1897;-66
2023/04/23 17:39:40;;;;;;;;;;;20.00;47.70;;;;;;10367982;28;958;-66
2023/04/23 17:44:36;;;;;;;;;;;20.00;47.70;;;;;;10365940;28;814;-67
2023/04/23 17:49:31;;;;;;;;;;;20.00;47.80;;;;;;10367687;28;825;-66
2023/04/23 17:54:26;;;;;;;;;;;20.00;47.90;;;;;;10366155;28;1316;-66
2023/04/23 17:59:22;;;;;;;;;;;20.00;47.90;;;;;;10367077;28;1913;-66
2023/04/23 18:04:17;;;;;;;;;;;20.00;48.00;;;;;;10367327;28;755;-66
2023/04/23 18:09:12;;;;;;;;;;;20.00;48.10;;;;;;10367161;28;940;-66
2023/04/23 18:14:08;;;;;;;;;;;20.00;48.10;;;;;;10366525;28;851;-66
2023/04/23 18:19:03;;;;;;;;;;;20.00;48.10;;;;;;10365794;28;1909;-66
2023/04/23 18:23:59;;;;;;;;;;;20.00;48.10;;;;;;10367057;28;1036;-66
2023/04/23 18:28:54;;;;;;;;;;;20.00;48.20;;;;;;10366767;28;806;-66
2023/04/23 18:33:49;;;;;;;;;;;20.00;48.20;;;;;;10366118;28;791;-66
2023/04/23 18:38:45;;;;;;;;;;;20.00;48.20;;;;;;10365378;28;1906;-66
2023/04/23 18:43:40;;;;;;;;;;;20.00;48.20;;;;;;10365914;28;900;-66
2023/04/23 18:48:36;;;;;;;;;;;20.00;48.20;;;;;;10366758;28;974;-66
2023/04/23 18:53:31;;;;;;;;;;;20.00;48.30;;;;;;10365789;28;784;-66
2023/04/23 18:58:26;;;;;;;;;;;20.00;48.20;;;;;;10373774;28;1918;-66
2023/04/23 19:03:22;;;;;;;;;;;20.00;48.30;;;;;;10374188;28;976;-66
2023/04/23 19:08:17;;;;;;;;;;;20.10;48.40;;;;;;10374512;28;957;-66
2023/04/23 19:13:13;;;;;;;;;;;20.00;48.30;;;;;;10373071;28;754;-66
2023/04/23 19:18:08;;;;;;;;;;;20.10;48.40;;;;;;10372759;28;1905;-66
2023/04/23 19:23:03;;;;;;;;;;;20.10;48.40;;;;;;10372702;28;782;-66
2023/04/23 19:27:59;;;;;;;;;;;20.10;48.40;;;;;;10373519;28;885;-66
2023/04/23 19:32:54;;;;;;;;;;;20.00;48.30;;;;;;10372965;28;778;-66
2023/04/23 19:37:49;;;;;;;;;;;20.00;48.40;;;;;;10372130;28;1910;-66
2023/04/23 19:42:45;;;;;;;;;;;20.00;48.40;;;;;;10372136;28;837;-66
2023/04/23 19:47:40;;;;;;;;;;;20.10;48.40;;;;;;10371779;28;790;-66
2023/04/23 19:52:36;;;;;;;;;;;20.10;48.50;;;;;;10372046;28;769;-66
2023/04/23 19:57:31;;;;;;;;;;;20.00;48.40;;;;;;10371722;28;1914;-67
2023/04/23 20:02:27;;;;;;;;;;;20.00;48.50;;;;;;10371108;28;945;-71
2023/04/23 20:07:22;;;;;;;;;;;20.00;48.50;;;;;;10369663;28;1353;-70
2023/04/23 20:12:18;;;;;;;;;;;20.00;48.50;;;;;;10370701;28;855;-70
2023/04/23 20:17:14;;;;;;;;;;;20.00;48.50;;;;;;10371084;28;1902;-70
2023/04/23 20:22:09;;;;;;;;;;;20.00;48.50;;;;;;10371015;28;849;-70
2023/04/23 20:27:05;;;;;;;;;;;20.00;48.50;;;;;;10370203;28;861;-70
2023/04/23 20:32:01;;;;;;;;;;;19.90;48.40;;;;;;10370581;28;946;-70
2023/04/23 20:36:57;;;;;;;;;;;19.90;48.40;;;;;;10369681;28;1906;-70
2023/04/23 20:41:53;;;;;;;;;;;20.00;48.50;;;;;;10369021;28;863;-70
2023/04/23 20:46:50;;;;;;;;;;;20.00;48.50;;;;;;10370104;28;841;-70
2023/04/23 20:51:45;;;;;;;;;;;20.00;48.40;;;;;;10369299;28;931;-70
2023/04/23 20:56:40;;;;;;;;;;;19.90;48.40;;;;;;10369307;28;1983;-70
2023/04/23 21:01:36;;;;;;;;;;;19.90;48.40;;;;;;10369486;28;892;-70
2023/04/23 21:06:32;;;;;;;;;;;19.90;48.40;;;;;;10368649;28;963;-70
2023/04/23 21:11:27;;;;;;;;;;;19.90;48.30;;;;;;10368482;28;833;-70
2023/04/23 21:16:23;;;;;;;;;;;19.90;48.10;;;;;;10368459;28;1913;-70
2023/04/23 21:21:18;;;;;;;;;;;19.90;48.20;;;;;;10368140;28;849;-70
2023/04/23 21:26:13;;;;;;;;;;;19.90;48.10;;;;;;10367317;28;909;-70
2023/04/23 21:31:09;;;;;;;;;;;19.90;48.00;;;;;;10368559;28;959;-70
2023/04/23 21:36:04;;;;;;;;;;;19.90;48.00;;;;;;10368040;28;1936;-70
2023/04/23 21:41:01;;;;;;;;;;;19.90;47.90;;;;;;10367545;28;951;-70
2023/04/23 21:45:56;;;;;;;;;;;19.90;47.70;;;;;;10367788;28;825;-70
2023/04/23 21:50:52;;;;;;;;;;;19.90;47.70;;;;;;10367081;28;897;-70
2023/04/23 21:55:47;;;;;;;;;;;19.90;47.60;;;;;;10366940;28;1906;-70
2023/04/23 22:00:43;;;;;;;;;;;19.90;47.60;;;;;;10367778;28;774;-70
2023/04/23 22:05:38;;;;;;;;;;;19.90;47.40;;;;;;10367357;28;895;-70
2023/04/23 22:10:41;;;;;;;;;;;19.90;47.40;;;;;;10365864;28;1076;-70
2023/04/23 22:15:37;;;;;;;;;;;19.90;47.10;;;;;;10366733;28;1911;-70
2023/04/23 22:20:32;;;;;;;;;;;19.80;47.30;;;;;;10366947;28;772;-70
2023/04/23 22:25:28;;;;;;;;;;;19.80;47.20;;;;;;10366863;28;865;-70
2023/04/23 22:30:23;;;;;;;;;;;19.80;47.10;;;;;;10369205;28;891;-70
2023/04/23 22:35:18;;;;;;;;;;;19.80;47.00;;;;;;10373991;28;1897;-70
2023/04/23 22:40:14;;;;;;;;;;;19.80;47.10;;;;;;10374665;28;1004;-70
2023/04/23 22:45:09;;;;;;;;;;;19.80;47.20;;;;;;10374280;28;751;-70
2023/04/23 22:50:05;;;;;;;;;;;19.80;47.10;;;;;;10374974;28;797;-70
2023/04/23 22:55:00;;;;;;;;;;;19.80;47.10;;;;;;10373710;28;1909;-70
2023/04/23 22:59:56;;;;;;;;;;;19.80;47.70;;;;;;10373857;28;872;-70
2023/04/23 23:04:51;;;;;;;;;;;19.80;47.00;;;;;;10373515;28;916;-70
2023/04/23 23:09:47;;;;;;;;;;;19.80;46.90;;;;;;10373307;28;861;-70
2023/04/23 23:14:42;;;;;;;;;;;19.80;46.90;;;;;;10373086;28;798;-70
2023/04/23 23:19:37;;;;;;;;;;;19.80;47.00;;;;;;10372845;28;1894;-70
2023/04/23 23:24:33;;;;;;;;;;;19.80;47.00;;;;;;10373418;28;881;-70
2023/04/23 23:29:28;;;;;;;;;;;19.80;47.00;;;;;;10372564;28;854;-70
2023/04/23 23:34:24;;;;;;;;;;;19.80;47.00;;;;;;10372419;28;909;-70
2023/04/23 23:39:19;;;;;;;;;;;19.80;47.10;;;;;;10372643;28;1979;-70
2023/04/23 23:44:15;;;;;;;;;;;19.80;47.00;;;;;;10371463;28;805;-70
2023/04/23 23:49:11;;;;;;;;;;;19.70;47.00;;;;;;10371697;28;876;-70
2023/04/23 23:54:06;;;;;;;;;;;19.70;47.10;;;;;;10372134;28;884;-70
2023/04/23 23:59:01;;;;;;;;;;;19.70;47.10;;;;;;10372089;28;1910;-70
